Time;durP1;ratioP1;P1;durP2;ratioP2;P2;SDS_P1;SDS_P2;PMS_P1;PMS_P2;Temp;Humidity;BMP_temperature;BMP_pressure;BME280_temperature;BME280_humidity;BME280_pressure;Samples;Min_cycle;Max_cycle;Signal;HPM_P1;HPM_P2
2023/05/15 00:00:01;;;;;;;;;;;;;;;17.71;56.29;100416.00;4894724;29;6967;-77
2023/05/15 00:02:27;;;;;;;;;;;;;;;17.68;56.52;100416.81;4883919;29;6967;-80
2023/05/15 00:04:52;;;;;;;;;;;;;;;17.67;56.94;100429.75;4887283;29;6963;-79
2023/05/15 00:07:18;;;;;;;;;;;;;;;17.67;56.91;100427.16;4898498;29;7227;-75
2023/05/15 00:09:44;;;;;;;;;;;;;;;17.67;57.01;100417.66;4893791;29;6861;-76
2023/05/15 00:12:09;;;;;;;;;;;;;;;17.70;57.33;100422.03;4893544;29;7329;-79
2023/05/15 00:14:35;;;;;;;;;;;;;;;17.72;57.69;100422.94;4895110;29;6940;-77
2023/05/15 00:17:01;;;;;;;;;;;;;;;17.77;57.49;100416.13;4884810;29;8370;-79
2023/05/15 00:19:26;;;;;;;;;;;;;;;17.80;57.38;100412.69;4893606;29;8520;-79
2023/05/15 00:21:52;;;;;;;;;;;;;;;17.84;57.63;100417.97;4907067;29;6956;-76
2023/05/15 00:24:18;;;;;;;;;;;;;;;17.90;57.38;100412.03;4898406;29;6961;-79
2023/05/15 00:26:44;;;;;;;;;;;;;;;17.94;57.32;100408.66;4880741;29;7138;-79
2023/05/15 00:29:10;;;;;;;;;;;;;;;17.96;57.50;100406.06;4897020;29;8474;-79
2023/05/15 00:31:35;;;;;;;;;;;;;;;17.96;57.48;100398.28;4905043;29;6810;-77
2023/05/15 00:34:01;;;;;;;;;;;;;;;17.96;57.41;100396.59;4888443;29;7271;-75
2023/05/15 00:36:26;;;;;;;;;;;;;;;17.95;57.63;100397.44;4908538;29;7065;-78
2023/05/15 00:38:52;;;;;;;;;;;;;;;17.93;57.29;100390.47;4892045;29;6965;-79
2023/05/15 00:41:21;;;;;;;;;;;;;;;17.94;57.12;100393.09;4881106;29;7014;-79
2023/05/15 00:43:50;;;;;;;;;;;;;;;17.92;57.02;100392.22;4905259;29;6980;-78
2023/05/15 00:46:16;;;;;;;;;;;;;;;17.90;57.66;100406.84;4913085;29;7727;-79
2023/05/15 00:48:43;;;;;;;;;;;;;;;17.89;57.83;100395.63;4872889;29;7334;-75
2023/05/15 00:51:08;;;;;;;;;;;;;;;17.89;57.64;100395.63;4910945;29;6792;-78
2023/05/15 00:53:34;;;;;;;;;;;;;;;17.90;57.29;100388.69;4896279;29;6804;-80
2023/05/15 00:56:03;;;;;;;;;;;;;;;17.89;57.26;100381.75;4895723;29;7847;-79
2023/05/15 00:58:30;;;;;;;;;;;;;;;17.90;57.82;100384.41;4910010;29;6873;-77
2023/05/15 01:00:56;;;;;;;;;;;;;;;17.93;57.74;100385.28;4910687;28;8229;-79
2023/05/15 01:03:22;;;;;;;;;;;;;;;17.94;57.62;100387.91;4894275;29;6874;-79
2023/05/15 01:05:48;;;;;;;;;;;;;;;17.95;57.91;100387.06;4892849;29;7289;-76
2023/05/15 01:08:39;;;;;;;;;;;;;;;17.98;57.43;100378.47;4901758;29;7122;-79
2023/05/15 01:11:08;;;;;;;;;;;;;;;18.00;57.97;100377.63;4909074;29;6837;-80
2023/05/15 01:13:33;;;;;;;;;;;;;;;18.02;57.66;100375.97;4894204;29;6796;-75
2023/05/15 01:15:59;;;;;;;;;;;;;;;18.06;57.99;100383.81;4892312;29;6980;-79
2023/05/15 01:18:30;;;;;;;;;;;;;;;18.06;57.84;100384.69;4894095;29;6995;-79
2023/05/15 01:21:26;;;;;;;;;;;;;;;18.09;57.66;100386.44;4896201;29;6937;-79
2023/05/15 01:24:47;;;;;;;;;;;;;;;18.10;57.39;100381.31;4894642;29;6816;-79
2023/05/15 01:27:42;;;;;;;;;;;;;;;18.11;57.37;100383.03;4897551;29;6989;-79
2023/05/15 01:30:10;;;;;;;;;;;;;;;18.15;58.01;100381.38;4896206;29;6865;-79
2023/05/15 01:32:51;;;;;;;;;;;;;;;18.19;57.45;100383.16;4918330;29;11114;-79
2023/05/15 01:35:30;;;;;;;;;;;;;;;18.21;57.63;100385.78;4902384;29;6932;-79
2023/05/15 01:38:18;;;;;;;;;;;;;;;18.23;57.49;100382.38;4907510;29;7016;-79
2023/05/15 01:40:46;;;;;;;;;;;;;;;18.24;56.70;100380.63;4899090;29;7101;-77
2023/05/15 01:43:20;;;;;;;;;;;;;;;18.25;57.41;100379.78;4897745;29;6889;-79
2023/05/15 01:45:46;;;;;;;;;;;;;;;18.25;57.37;100384.97;4898064;29;6872;-79
2023/05/15 01:48:14;;;;;;;;;;;;;;;18.26;57.02;100378.97;4906107;29;7275;-80
2023/05/15 01:50:44;;;;;;;;;;;;;;;18.26;57.26;100381.56;4915015;29;7282;-80
2023/05/15 01:53:11;;;;;;;;;;;;;;;18.27;56.98;100385.91;4892925;29;7235;-79
2023/05/15 01:55:38;;;;;;;;;;;;;;;18.26;56.97;100384.16;4911010;29;6987;-78
2023/05/15 01:58:04;;;;;;;;;;;;;;;18.25;56.97;100383.28;4908433;29;7012;-76
2023/05/15 02:00:32;;;;;;;;;;;;;;;18.21;56.65;100380.59;4910596;28;6784;-79
2023/05/15 02:02:58;;;;;;;;;;;;;;;18.19;56.70;100388.34;4905551;29;6813;-79
2023/05/15 02:05:26;;;;;;;;;;;;;;;18.16;56.73;100396.97;4899380;29;6797;-78
2023/05/15 02:07:53;;;;;;;;;;;;;;;18.14;57.12;100390.88;4906114;29;6912;-78
2023/05/15 02:10:20;;;;;;;;;;;;;;;18.13;57.03;100396.91;4908555;29;6792;-79
2023/05/15 02:12:46;;;;;;;;;;;;;;;18.11;56.74;100396.00;4912372;29;6792;-79
2023/05/15 02:15:13;;;;;;;;;;;;;;;18.09;56.73;100389.94;4898418;29;6800;-78
2023/05/15 02:17:39;;;;;;;;;;;;;;;18.09;56.93;100395.13;4911711;29;6796;-79
2023/05/15 02:20:06;;;;;;;;;;;;;;;18.09;56.69;100396.81;4901050;29;6996;-79
2023/05/15 02:22:32;;;;;;;;;;;;;;;18.08;56.79;100390.78;4892765;29;6984;-78
2023/05/15 02:24:58;;;;;;;;;;;;;;;18.07;56.85;100388.16;4916655;29;7182;-79
2023/05/15 02:27:28;;;;;;;;;;;;;;;18.04;56.65;100394.16;4898788;29;6788;-79
2023/05/15 02:30:37;;;;;;;;;;;;;;;17.99;56.25;100381.06;4896717;29;7372;-80
2023/05/15 02:33:27;;;;;;;;;;;;;;;17.93;56.45;100391.34;4911541;29;12980;-78
2023/05/15 02:36:06;;;;;;;;;;;;;;;17.88;56.20;100387.78;4911735;29;7260;-78
2023/05/15 02:38:47;;;;;;;;;;;;;;;17.81;56.40;100392.00;4901615;29;7782;-79
2023/05/15 02:41:15;;;;;;;;;;;;;;;17.76;56.29;100394.50;4905385;29;6800;-78
2023/05/15 02:43:43;;;;;;;;;;;;;;;17.71;56.41;100390.09;4903839;29;6967;-77
2023/05/15 02:46:11;;;;;;;;;;;;;;;17.70;56.50;100389.19;4897217;29;6797;-75
2023/05/15 02:48:42;;;;;;;;;;;;;;;17.68;56.04;100395.22;4897742;29;6892;-75
2023/05/15 02:51:08;;;;;;;;;;;;;;;17.65;56.24;100393.44;4896599;29;7267;-76
2023/05/15 02:53:40;;;;;;;;;;;;;;;17.59;55.96;100391.63;4914829;28;7001;-75
2023/05/15 02:56:06;;;;;;;;;;;;;;;17.55;56.05;100387.19;4896443;29;7049;-75
2023/05/15 02:58:32;;;;;;;;;;;;;;;17.51;56.17;100392.28;4913345;29;7327;-76
2023/05/15 03:00:58;;;;;;;;;;;;;;;17.47;56.05;100392.25;4917364;28;7350;-79
2023/05/15 03:03:24;;;;;;;;;;;;;;;17.44;55.66;100387.00;4901404;28;7009;-78
2023/05/15 03:05:50;;;;;;;;;;;;;;;17.38;55.83;100384.28;4893566;29;8491;-78
2023/05/15 03:08:15;;;;;;;;;;;;;;;17.32;55.82;100376.38;4892526;29;8454;-79
2023/05/15 03:10:41;;;;;;;;;;;;;;;17.26;55.77;100377.13;4899246;29;7035;-78
2023/05/15 03:13:08;;;;;;;;;;;;;;;17.22;56.13;100375.34;4910566;29;7291;-76
2023/05/15 03:15:34;;;;;;;;;;;;;;;17.21;55.90;100378.78;4917645;29;7021;-79
2023/05/15 03:18:00;;;;;;;;;;;;;;;17.17;55.99;100370.06;4899095;29;6837;-78
2023/05/15 03:20:25;;;;;;;;;;;;;;;17.16;55.88;100375.22;4897784;29;7836;-79
2023/05/15 03:22:51;;;;;;;;;;;;;;;17.11;55.54;100366.50;4894872;29;6776;-79
2023/05/15 03:25:17;;;;;;;;;;;;;;;17.03;56.19;100369.78;4916044;29;6800;-76
2023/05/15 03:27:42;;;;;;;;;;;;;;;16.94;55.66;100365.22;4901610;29;6947;-78
2023/05/15 03:30:09;;;;;;;;;;;;;;;16.84;55.98;100368.47;4906877;28;7173;-79
2023/05/15 03:32:34;;;;;;;;;;;;;;;16.74;55.85;100362.22;4896150;29;11936;-75
2023/05/15 03:35:00;;;;;;;;;;;;;;;16.65;56.30;100367.19;4880604;29;6974;-79
2023/05/15 03:37:26;;;;;;;;;;;;;;;16.56;56.40;100361.81;4898872;29;7752;-80
2023/05/15 03:39:51;;;;;;;;;;;;;;;16.47;56.38;100365.94;4892039;29;7220;-74
2023/05/15 03:42:22;;;;;;;;;;;;;;;16.41;56.25;100368.38;4896788;29;6788;-77
2023/05/15 03:44:49;;;;;;;;;;;;;;;16.35;56.15;100373.41;4906618;29;6796;-78
2023/05/15 03:47:15;;;;;;;;;;;;;;;16.29;56.34;100363.81;4884797;29;7142;-77
2023/05/15 03:49:41;;;;;;;;;;;;;;;16.25;56.58;100367.13;4914874;29;6924;-78
2023/05/15 03:52:08;;;;;;;;;;;;;;;16.22;56.83;100369.66;4910735;29;7548;-78
2023/05/15 03:54:34;;;;;;;;;;;;;;;16.16;56.88;100362.63;4899112;29;8468;-75
2023/05/15 03:57:00;;;;;;;;;;;;;;;16.11;57.37;100361.63;4903555;29;6800;-78
2023/05/15 03:59:26;;;;;;;;;;;;;;;16.08;57.29;100364.16;4894229;29;6840;-75
2023/05/15 04:01:52;;;;;;;;;;;;;;;16.03;57.38;100363.13;4890093;29;6785;-74
2023/05/15 04:04:17;;;;;;;;;;;;;;;15.99;57.54;100359.63;4894348;29;6847;-74
2023/05/15 04:06:43;;;;;;;;;;;;;;;16.00;57.33;100363.06;4912164;29;6784;-74
2023/05/15 04:09:09;;;;;;;;;;;;;;;15.98;57.30;100367.34;4899030;29;7264;-74
2023/05/15 04:11:35;;;;;;;;;;;;;;;15.96;57.90;100362.13;4890838;29;6781;-75
2023/05/15 04:14:01;;;;;;;;;;;;;;;15.95;57.78;100368.13;4882228;29;6980;-75
2023/05/15 04:16:26;;;;;;;;;;;;;;;15.96;58.05;100368.19;4909746;28;6867;-75
2023/05/15 04:18:52;;;;;;;;;;;;;;;15.98;58.04;100362.16;4901113;29;9984;-75
2023/05/15 04:21:18;;;;;;;;;;;;;;;15.99;58.26;100367.38;4897534;29;6957;-75
2023/05/15 04:23:43;;;;;;;;;;;;;;;16.04;57.98;100372.69;4893568;29;7512;-75
2023/05/15 04:26:09;;;;;;;;;;;;;;;16.10;57.94;100377.97;4905091;29;7810;-75
2023/05/15 04:28:35;;;;;;;;;;;;;;;16.13;58.23;100380.66;4909266;29;7716;-75
2023/05/15 04:31:00;;;;;;;;;;;;;;;16.19;58.12;100382.53;4887666;29;7334;-75
2023/05/15 04:33:26;;;;;;;;;;;;;;;16.23;58.04;100390.41;4907119;29;7297;-74
2023/05/15 04:35:52;;;;;;;;;;;;;;;16.28;58.29;100393.09;4890699;29;7305;-75
2023/05/15 04:38:18;;;;;;;;;;;;;;;16.31;58.14;100390.56;4904308;28;7341;-75
2023/05/15 04:40:45;;;;;;;;;;;;;;;16.34;58.31;100392.38;4891204;29;7295;-75
2023/05/15 04:43:10;;;;;;;;;;;;;;;16.37;57.96;100390.72;4906108;29;7252;-77
2023/05/15 04:45:36;;;;;;;;;;;;;;;16.40;58.00;100395.06;4910226;29;6776;-76
2023/05/15 04:48:02;;;;;;;;;;;;;;;16.44;57.71;100396.91;4910278;29;7160;-75
2023/05/15 04:50:28;;;;;;;;;;;;;;;16.48;57.49;100396.13;4898428;29;7246;-75
2023/05/15 04:52:54;;;;;;;;;;;;;;;16.51;57.67;100393.66;4908461;28;7222;-75
2023/05/15 04:55:19;;;;;;;;;;;;;;;16.54;57.53;100394.56;4898191;29;7111;-76
2023/05/15 04:57:50;;;;;;;;;;;;;;;16.58;57.77;100405.00;4885143;29;6989;-76
2023/05/15 05:00:16;;;;;;;;;;;;;;;16.60;57.47;100399.84;4893139;29;6898;-75
2023/05/15 05:02:44;;;;;;;;;;;;;;;16.60;57.32;100402.44;4891641;29;7273;-75
2023/05/15 05:05:09;;;;;;;;;;;;;;;16.58;56.91;100396.34;4895812;29;7191;-75
2023/05/15 05:07:35;;;;;;;;;;;;;;;16.57;56.92;100395.50;4912066;29;6764;-76
2023/05/15 05:10:04;;;;;;;;;;;;;;;16.57;57.14;100394.59;4912892;29;6847;-76
2023/05/15 05:12:29;;;;;;;;;;;;;;;16.56;57.16;100388.53;4911829;29;6804;-76
2023/05/15 05:14:55;;;;;;;;;;;;;;;16.55;56.92;100391.13;4899718;29;6790;-75
2023/05/15 05:17:21;;;;;;;;;;;;;;;16.56;56.72;100400.63;4899126;29;6819;-75
2023/05/15 05:19:47;;;;;;;;;;;;;;;16.58;57.23;100406.69;4888881;29;7169;-76
2023/05/15 05:22:12;;;;;;;;;;;;;;;16.62;57.12;100395.59;4895981;29;9753;-75
2023/05/15 05:24:38;;;;;;;;;;;;;;;16.67;57.12;100391.41;4887535;29;8491;-75
2023/05/15 05:27:04;;;;;;;;;;;;;;;16.72;56.68;100394.09;4892602;29;6978;-75
2023/05/15 05:29:30;;;;;;;;;;;;;;;16.77;56.81;100388.16;4897332;29;6970;-76
2023/05/15 05:31:57;;;;;;;;;;;;;;;16.84;56.53;100390.91;4902918;29;6965;-76
2023/05/15 05:34:22;;;;;;;;;;;;;;;16.89;56.63;100394.44;4911780;29;6792;-75
2023/05/15 05:36:48;;;;;;;;;;;;;;;16.91;55.69;100403.16;4908498;29;7573;-76
2023/05/15 05:39:18;;;;;;;;;;;;;;;16.87;56.10;100394.44;4888418;29;7092;-76
2023/05/15 05:41:44;;;;;;;;;;;;;;;16.83;55.65;100397.78;4874872;29;7014;-75
2023/05/15 05:44:09;;;;;;;;;;;;;;;16.82;55.88;100401.22;4915143;29;7203;-77
2023/05/15 05:46:35;;;;;;;;;;;;;;;16.85;56.19;100406.47;4889447;29;6949;-78
2023/05/15 05:49:01;;;;;;;;;;;;;;;16.93;56.44;100404.06;4894078;29;7192;-78
2023/05/15 05:51:26;;;;;;;;;;;;;;;17.05;56.63;100399.16;4881685;29;7233;-75
2023/05/15 05:53:52;;;;;;;;;;;;;;;17.24;56.87;100404.72;4881764;29;7187;-75
2023/05/15 05:56:18;;;;;;;;;;;;;;;17.44;56.58;100396.50;4913411;29;6844;-78
2023/05/15 05:58:43;;;;;;;;;;;;;;;17.62;56.12;100395.97;4889270;29;6847;-78
2023/05/15 06:01:09;;;;;;;;;;;;;;;17.77;55.69;100401.44;4911924;29;6837;-78
2023/05/15 06:03:37;;;;;;;;;;;;;;;17.95;55.51;100405.22;4906491;29;6976;-78
2023/05/15 06:06:03;;;;;;;;;;;;;;;18.11;54.72;100408.97;4905517;29;6820;-76
2023/05/15 06:08:29;;;;;;;;;;;;;;;18.22;54.47;100410.88;4894560;29;6809;-76
2023/05/15 06:10:55;;;;;;;;;;;;;;;18.28;53.83;100413.59;4885542;29;7319;-76
2023/05/15 06:13:21;;;;;;;;;;;;;;;18.31;53.99;100421.41;4896100;29;7196;-76
2023/05/15 06:15:46;;;;;;;;;;;;;;;18.31;53.40;100413.63;4894665;29;7180;-76
2023/05/15 06:18:12;;;;;;;;;;;;;;;18.31;53.40;100411.03;4896752;29;6917;-77
2023/05/15 06:20:38;;;;;;;;;;;;;;;18.30;53.57;100422.25;4891593;29;6973;-76
2023/05/15 06:23:03;;;;;;;;;;;;;;;18.28;53.36;100423.97;4896467;29;6776;-76
2023/05/15 06:25:29;;;;;;;;;;;;;;;18.24;52.81;100429.94;4892901;29;7025;-76
2023/05/15 06:27:55;;;;;;;;;;;;;;;18.24;52.84;100432.53;4914800;29;7182;-77
2023/05/15 06:30:21;;;;;;;;;;;;;;;18.27;53.25;100424.81;4898466;29;6826;-76
2023/05/15 06:32:47;;;;;;;;;;;;;;;18.34;53.16;100430.97;4914100;29;6804;-76
2023/05/15 06:35:12;;;;;;;;;;;;;;;18.41;53.15;100428.50;4918121;29;6768;-76
2023/05/15 06:37:38;;;;;;;;;;;;;;;18.53;53.34;100439.91;4900946;29;6941;-76
2023/05/15 06:40:05;;;;;;;;;;;;;;;18.66;52.61;100438.38;4898324;29;7152;-76
2023/05/15 06:42:31;;;;;;;;;;;;;;;18.79;52.44;100448.13;4912291;29;7029;-77
2023/05/15 06:44:57;;;;;;;;;;;;;;;18.90;52.20;100437.88;4912177;29;6981;-76
2023/05/15 06:47:22;;;;;;;;;;;;;;;19.00;51.45;100439.78;4902042;29;6768;-77
2023/05/15 06:49:48;;;;;;;;;;;;;;;19.07;51.16;100437.28;4917003;29;6780;-77
2023/05/15 06:52:14;;;;;;;;;;;;;;;19.08;50.19;100431.22;4917091;29;6901;-77
2023/05/15 06:54:40;;;;;;;;;;;;;;;19.04;50.28;100429.47;4911935;29;7292;-77
2023/05/15 06:57:06;;;;;;;;;;;;;;;19.06;50.94;100425.16;4888365;29;6836;-77
2023/05/15 06:59:34;;;;;;;;;;;;;;;19.11;50.54;100433.84;4896297;29;7352;-77
2023/05/15 07:02:05;;;;;;;;;;;;;;;19.16;50.03;100434.81;4894802;29;6797;-77
2023/05/15 07:04:30;;;;;;;;;;;;;;;19.22;49.36;100432.28;4899370;29;7015;-77
2023/05/15 07:06:56;;;;;;;;;;;;;;;19.28;49.77;100431.50;4895687;29;6946;-77
2023/05/15 07:09:23;;;;;;;;;;;;;;;19.28;48.56;100428.91;4899402;29;7074;-77
2023/05/15 07:11:48;;;;;;;;;;;;;;;19.21;48.55;100427.94;4894330;29;6983;-77
2023/05/15 07:14:14;;;;;;;;;;;;;;;19.12;48.86;100420.91;4895260;29;6768;-77
2023/05/15 07:16:40;;;;;;;;;;;;;;;19.08;48.96;100428.63;4912400;28;7041;-77
2023/05/15 07:19:08;;;;;;;;;;;;;;;19.12;49.38;100422.59;4907376;29;7136;-77
2023/05/15 07:21:34;;;;;;;;;;;;;;;19.23;49.55;100421.06;4886588;29;7353;-77
2023/05/15 07:24:00;;;;;;;;;;;;;;;19.32;49.05;100425.47;4912521;29;7061;-77
2023/05/15 07:26:25;;;;;;;;;;;;;;;19.40;49.02;100430.75;4894727;29;6987;-77
2023/05/15 07:28:51;;;;;;;;;;;;;;;19.47;48.64;100419.59;4909270;29;7065;-77
2023/05/15 07:31:16;;;;;;;;;;;;;;;19.57;48.49;100423.19;4906189;28;6984;-77
2023/05/15 07:33:43;;;;;;;;;;;;;;;19.65;48.05;100420.66;4889875;29;7626;-77
2023/05/15 07:36:09;;;;;;;;;;;;;;;19.70;47.87;100413.75;4892235;29;7090;-76
2023/05/15 07:38:35;;;;;;;;;;;;;;;19.73;47.47;100413.81;4909377;29;7085;-76
2023/05/15 07:41:00;;;;;;;;;;;;;;;19.78;47.16;100416.47;4884645;29;7231;-77
2023/05/15 07:43:26;;;;;;;;;;;;;;;19.86;46.97;100409.63;4893805;29;7219;-77
2023/05/15 07:45:52;;;;;;;;;;;;;;;19.95;46.71;100414.06;4905808;29;7157;-77
2023/05/15 07:48:19;;;;;;;;;;;;;;;20.05;46.52;100417.63;4908603;29;7446;-77
2023/05/15 07:50:46;;;;;;;;;;;;;;;20.14;46.18;100414.22;4900340;29;6998;-77
2023/05/15 07:53:12;;;;;;;;;;;;;;;20.21;45.76;100416.88;4897400;29;6985;-76
2023/05/15 07:55:40;;;;;;;;;;;;;;;20.29;45.90;100416.97;4889081;29;8128;-76
2023/05/15 07:58:06;;;;;;;;;;;;;;;20.37;45.64;100412.66;4893242;29;7439;-76
2023/05/15 08:00:32;;;;;;;;;;;;;;;20.49;45.35;100413.66;4915559;29;7019;-76
2023/05/15 08:02:58;;;;;;;;;;;;;;;20.59;45.46;100415.44;4909232;29;7189;-76
2023/05/15 08:05:24;;;;;;;;;;;;;;;20.71;45.24;100400.75;4899832;29;6781;-77
2023/05/15 08:07:50;;;;;;;;;;;;;;;20.83;44.67;100407.81;4887337;29;7076;-77
2023/05/15 08:10:15;;;;;;;;;;;;;;;20.98;45.21;100401.81;4917058;29;6832;-77
2023/05/15 08:12:45;;;;;;;;;;;;;;;21.09;44.51;100400.13;4911447;29;7043;-77
2023/05/15 08:15:12;;;;;;;;;;;;;;;21.16;44.18;100403.63;4903266;29;6804;-77
2023/05/15 08:17:38;;;;;;;;;;;;;;;21.21;44.08;100397.56;4895818;29;7298;-77
2023/05/15 08:20:04;;;;;;;;;;;;;;;21.32;44.20;100394.13;4900582;29;7063;-77
2023/05/15 08:22:30;;;;;;;;;;;;;;;21.41;43.73;100395.91;4917640;29;8395;-75
2023/05/15 08:24:57;;;;;;;;;;;;;;;21.50;43.46;100390.72;4883264;29;6981;-75
2023/05/15 08:27:22;;;;;;;;;;;;;;;21.60;43.63;100389.88;4888193;29;8421;-75
2023/05/15 08:29:48;;;;;;;;;;;;;;;21.78;43.91;100385.59;4896607;29;7038;-75
2023/05/15 08:32:14;;;;;;;;;;;;;;;22.06;43.61;100383.88;4897850;29;7088;-75
2023/05/15 08:34:39;;;;;;;;;;;;;;;22.40;43.55;100389.94;4907226;29;6992;-75
2023/05/15 08:37:05;;;;;;;;;;;;;;;22.70;42.63;100375.16;4902259;29;6920;-76
2023/05/15 08:39:32;;;;;;;;;;;;;;;22.98;42.00;100382.88;4884354;29;7040;-76
2023/05/15 08:42:17;;;;;;;;;;;;;;;23.21;41.58;100377.53;4917978;29;7047;-76
2023/05/15 08:44:43;;;;;;;;;;;;;;;23.40;41.16;100369.63;4921769;29;6869;-75
2023/05/15 08:47:10;;;;;;;;;;;;;;;23.57;40.74;100372.19;4904979;29;6788;-75
2023/05/15 08:50:05;;;;;;;;;;;;;;;23.72;40.08;100379.91;4883045;29;6982;-75
2023/05/15 08:52:32;;;;;;;;;;;;;;;23.91;39.46;100381.53;4907835;29;7274;-75
2023/05/15 08:54:59;;;;;;;;;;;;;;;24.15;38.97;100377.00;4893883;29;6813;-75
2023/05/15 08:57:27;;;;;;;;;;;;;;;24.35;38.99;100374.22;4891356;29;6793;-76
2023/05/15 08:59:54;;;;;;;;;;;;;;;24.62;39.15;100375.66;4911196;29;6820;-76
2023/05/15 09:02:20;;;;;;;;;;;;;;;24.99;38.80;100377.03;4894648;29;6866;-75
2023/05/15 09:04:46;;;;;;;;;;;;;;;25.41;38.39;100370.38;4903800;29;6824;-76
2023/05/15 09:07:14;;;;;;;;;;;;;;;25.81;37.67;100367.19;4897064;29;6967;-76
2023/05/15 09:09:43;;;;;;;;;;;;;;;26.15;36.88;100376.25;4907737;29;7109;-75
2023/05/15 09:12:13;;;;;;;;;;;;;;;26.52;36.75;100370.38;4894702;29;7141;-74
2023/05/15 09:14:38;;;;;;;;;;;;;;;26.87;36.16;100368.81;4900161;29;6971;-75
2023/05/15 09:17:04;;;;;;;;;;;;;;;27.26;35.91;100361.91;4905184;29;6823;-75
2023/05/15 09:19:33;;;;;;;;;;;;;;;27.57;35.01;100356.84;4910634;29;6911;-74
2023/05/15 09:22:24;;;;;;;;;;;;;;;27.95;34.09;100367.31;4898065;29;6772;-74
2023/05/15 09:24:51;;;;;;;;;;;;;;;28.20;33.25;100361.47;4910419;29;6808;-74
2023/05/15 09:27:19;;;;;;;;;;;;;;;28.41;33.27;100357.41;4901308;29;6784;-74
2023/05/15 09:29:45;;;;;;;;;;;;;;;28.71;32.96;100355.72;4901734;29;6961;-74
2023/05/15 09:32:14;;;;;;;;;;;;;;;29.05;32.08;100355.63;4902170;29;7215;-74
2023/05/15 09:34:43;;;;;;;;;;;;;;;29.31;31.75;100350.47;4886562;29;7161;-74
2023/05/15 09:37:27;;;;;;;;;;;;;;;29.43;30.74;100359.78;4895829;29;7247;-74
2023/05/15 09:39:52;;;;;;;;;;;;;;;29.51;30.49;100352.53;4916685;29;6967;-74
2023/05/15 09:42:18;;;;;;;;;;;;;;;29.74;30.51;100350.91;4916485;29;7866;-74
2023/05/15 09:44:45;;;;;;;;;;;;;;;30.04;30.34;100356.94;4916585;29;6987;-74
2023/05/15 09:47:15;;;;;;;;;;;;;;;30.36;30.02;100356.75;4916180;29;6808;-74
2023/05/15 09:49:45;;;;;;;;;;;;;;;30.57;28.83;100351.63;4893618;29;6804;-74
2023/05/15 09:52:11;;;;;;;;;;;;;;;30.68;28.54;100361.81;4903524;29;7233;-74
2023/05/15 09:54:38;;;;;;;;;;;;;;;30.71;28.55;100357.28;4909461;29;7135;-74
2023/05/15 09:57:13;;;;;;;;;;;;;;;30.69;27.56;100350.31;4894070;29;6793;-73
2023/05/15 09:59:47;;;;;;;;;;;;;;;30.75;27.95;100345.66;4898553;29;6913;-73
2023/05/15 10:02:34;;;;;;;;;;;;;;;30.89;27.31;100345.13;4893715;29;7142;-73
2023/05/15 10:05:00;;;;;;;;;;;;;;;31.01;27.69;100345.63;4908358;29;7357;-73
2023/05/15 10:07:33;;;;;;;;;;;;;;;31.22;27.69;100351.00;4889524;29;12341;-73
2023/05/15 10:10:01;;;;;;;;;;;;;;;31.36;27.24;100343.38;4874005;29;7196;-73
2023/05/15 10:12:30;;;;;;;;;;;;;;;31.52;26.84;100342.78;4895977;29;6907;-73
2023/05/15 10:14:58;;;;;;;;;;;;;;;31.55;26.21;100337.34;4880455;29;7165;-75
2023/05/15 10:17:27;;;;;;;;;;;;;;;31.56;26.57;100339.94;4905503;29;6881;-74
2023/05/15 10:19:59;;;;;;;;;;;;;;;31.57;26.19;100340.78;4893456;29;6838;-74
2023/05/15 10:22:29;;;;;;;;;;;;;;;31.50;26.29;100328.75;4890929;29;7364;-74
2023/05/15 10:25:26;;;;;;;;;;;;;;;31.56;25.44;100334.63;4907234;29;6804;-73
2023/05/15 10:27:53;;;;;;;;;;;;;;;31.60;25.51;100327.44;4895358;29;6967;-73
2023/05/15 10:30:20;;;;;;;;;;;;;;;31.59;25.32;100334.50;4914793;29;6793;-73
2023/05/15 10:32:48;;;;;;;;;;;;;;;31.79;25.61;100324.84;4909946;29;6909;-74
2023/05/15 10:35:15;;;;;;;;;;;;;;;31.90;24.80;100321.78;4900062;29;7763;-74
2023/05/15 10:37:41;;;;;;;;;;;;;;;31.69;24.77;100324.41;4899138;29;6800;-74
2023/05/15 10:40:10;;;;;;;;;;;;;;;31.46;24.30;100317.41;4890934;29;9905;-74
2023/05/15 10:42:37;;;;;;;;;;;;;;;31.38;24.64;100322.16;4903138;29;6849;-73
2023/05/15 10:45:06;;;;;;;;;;;;;;;31.39;24.77;100321.22;4898992;29;7393;-73
2023/05/15 10:47:33;;;;;;;;;;;;;;;31.34;23.90;100309.94;4882098;29;6841;-74
2023/05/15 10:49:59;;;;;;;;;;;;;;;31.16;23.64;100321.19;4884268;29;7291;-73
2023/05/15 10:52:24;;;;;;;;;;;;;;;31.14;22.88;100320.38;4895412;29;7084;-74
2023/05/15 10:54:52;;;;;;;;;;;;;;;31.20;22.56;100321.94;4902000;29;6928;-74
2023/05/15 10:57:21;;;;;;;;;;;;;;;31.25;22.52;100319.13;4899014;29;6784;-74
2023/05/15 10:59:46;;;;;;;;;;;;;;;31.40;22.17;100317.66;4894285;29;7340;-74
2023/05/15 11:02:23;;;;;;;;;;;;;;;31.62;22.25;100314.97;4886822;29;7372;-74
2023/05/15 11:05:00;;;;;;;;;;;;;;;31.84;22.70;100311.44;4888735;29;7010;-74
2023/05/15 11:07:27;;;;;;;;;;;;;;;31.99;23.05;100310.81;4897270;29;6924;-74
2023/05/15 11:09:56;;;;;;;;;;;;;;;32.16;23.00;100311.00;4894782;29;6959;-74
2023/05/15 11:12:23;;;;;;;;;;;;;;;32.30;22.50;100302.44;4903356;29;6840;-74
2023/05/15 11:14:54;;;;;;;;;;;;;;;32.50;22.66;100296.22;4895039;29;7052;-74
2023/05/15 11:17:23;;;;;;;;;;;;;;;32.77;22.39;100299.41;4912097;29;6773;-74
2023/05/15 11:19:48;;;;;;;;;;;;;;;32.88;22.13;100295.41;4900022;29;7296;-74
2023/05/15 11:22:14;;;;;;;;;;;;;;;32.92;21.99;100294.34;4908134;28;7035;-74
2023/05/15 11:25:01;;;;;;;;;;;;;;;32.95;22.21;100292.41;4914636;29;6923;-73
2023/05/15 11:27:42;;;;;;;;;;;;;;;33.06;22.00;100291.03;4913009;29;7003;-74
2023/05/15 11:30:13;;;;;;;;;;;;;;;33.10;22.13;100292.59;4899136;28;7325;-74
2023/05/15 11:32:41;;;;;;;;;;;;;;;33.08;22.04;100282.06;4903552;29;12967;-75
2023/05/15 11:35:28;;;;;;;;;;;;;;;33.11;21.88;100289.84;4918021;29;9166;-74
2023/05/15 11:37:56;;;;;;;;;;;;;;;32.91;22.02;100284.63;4912750;29;6986;-74
2023/05/15 11:40:45;;;;;;;;;;;;;;;32.74;22.20;100286.31;4913047;29;7013;-74
2023/05/15 11:43:30;;;;;;;;;;;;;;;32.65;22.46;100276.13;4910273;28;6998;-74
2023/05/15 11:46:02;;;;;;;;;;;;;;;32.73;22.55;100281.91;4881112;29;7241;-74
2023/05/15 11:48:33;;;;;;;;;;;;;;;33.00;22.28;100280.72;4912555;29;7150;-74
2023/05/15 11:51:04;;;;;;;;;;;;;;;33.10;21.89;100272.22;4895547;29;7107;-74
2023/05/15 11:53:32;;;;;;;;;;;;;;;33.05;21.86;100273.38;4907503;29;7220;-74
2023/05/15 11:55:58;;;;;;;;;;;;;;;32.91;21.74;100269.56;4892260;28;6808;-74
2023/05/15 11:58:25;;;;;;;;;;;;;;;32.80;21.78;100266.59;4911616;29;6788;-74
2023/05/15 12:00:53;;;;;;;;;;;;;;;32.67;22.06;100274.25;4894486;29;6804;-74
2023/05/15 12:03:34;;;;;;;;;;;;;;;32.58;21.97;100270.22;4911896;29;6797;-74
2023/05/15 12:06:02;;;;;;;;;;;;;;;32.58;22.17;100275.53;4911884;29;6914;-74
2023/05/15 12:08:34;;;;;;;;;;;;;;;32.56;22.11;100269.44;4908068;29;7012;-74
2023/05/15 12:11:01;;;;;;;;;;;;;;;32.43;22.29;100266.50;4897676;29;6948;-75
2023/05/15 12:13:29;;;;;;;;;;;;;;;32.23;22.17;100262.94;4898330;29;7184;-74
2023/05/15 12:15:56;;;;;;;;;;;;;;;32.02;22.85;100262.13;4917590;29;6855;-74
2023/05/15 12:18:22;;;;;;;;;;;;;;;31.80;22.50;100264.81;4897281;29;7118;-74
2023/05/15 12:20:51;;;;;;;;;;;;;;;31.61;23.11;100260.28;4905624;29;6776;-74
2023/05/15 12:23:21;;;;;;;;;;;;;;;31.54;23.23;100269.41;4896927;29;7246;-74
2023/05/15 12:25:52;;;;;;;;;;;;;;;31.47;23.27;100266.16;4898372;29;6901;-74
2023/05/15 12:28:18;;;;;;;;;;;;;;;31.50;23.76;100259.91;4891250;29;6989;-74
2023/05/15 12:30:44;;;;;;;;;;;;;;;31.49;23.27;100258.19;4911421;29;6796;-74
2023/05/15 12:33:10;;;;;;;;;;;;;;;31.51;23.66;100261.59;4915682;28;6792;-74
2023/05/15 12:35:42;;;;;;;;;;;;;;;31.58;23.57;100263.94;4913075;29;6813;-74
2023/05/15 12:38:15;;;;;;;;;;;;;;;31.72;23.18;100262.47;4900132;29;6972;-74
2023/05/15 12:40:45;;;;;;;;;;;;;;;31.91;23.68;100262.56;4896440;29;6800;-74
2023/05/15 12:43:13;;;;;;;;;;;;;;;32.06;23.38;100257.50;4921066;29;6800;-74
2023/05/15 12:45:39;;;;;;;;;;;;;;;31.91;23.47;100264.34;4903238;29;6824;-75
2023/05/15 12:48:06;;;;;;;;;;;;;;;31.23;24.10;100278.59;4915952;29;6804;-76
2023/05/15 12:50:34;;;;;;;;;;;;;;;30.54;24.71;100278.56;4893449;29;6816;-76